Time;durP1;ratioP1;P1;durP2;ratioP2;P2;SDS_P1;SDS_P2;PMS_P1;PMS_P2;Temp;Humidity;BMP_temperature;BMP_pressure;BME280_temperature;BME280_humidity;BME280_pressure;Samples;Min_cycle;Max_cycle;Signal;HPM_P1;HPM_P2
2023/05/14 00:01:45;;;;;;;10.02;6.13;;;;;;;;;;4994085;28;20466;-77
2023/05/14 00:04:10;;;;;;;8.40;5.40;;;;;;;;;;4992217;28;20094;-77
2023/05/14 00:06:36;;;;;;;9.13;5.60;;;;;;;;;;4994260;28;20880;-77
2023/05/14 00:09:01;;;;;;;10.65;5.88;;;;;;;;;;4974152;28;20066;-76
2023/05/14 00:11:26;;;;;;;9.15;6.03;;;;;;;;;;4992407;28;20374;-76
2023/05/14 00:13:52;;;;;;;9.35;5.82;;;;;;;;;;4993075;28;20033;-77
2023/05/14 00:16:17;;;;;;;8.40;5.60;;;;;;;;;;4991730;28;20126;-77
2023/05/14 00:18:42;;;;;;;10.73;6.82;;;;;;;;;;4975820;28;20034;-76
2023/05/14 00:21:08;;;;;;;9.75;5.93;;;;;;;;;;4958778;28;20042;-76
2023/05/14 00:23:33;;;;;;;12.13;6.07;;;;;;;;;;4974331;28;20047;-76
2023/05/14 00:25:58;;;;;;;11.38;6.18;;;;;;;;;;4957789;28;20125;-76
2023/05/14 00:28:24;;;;;;;9.75;6.07;;;;;;;;;;4991577;28;20050;-77
2023/05/14 00:30:50;;;;;;;9.63;5.88;;;;;;;;;;4991649;28;20026;-77
2023/05/14 00:33:15;;;;;;;8.60;5.85;;;;;;;;;;4993188;28;20042;-77
2023/05/14 00:35:40;;;;;;;10.98;5.85;;;;;;;;;;4974199;28;20030;-76
2023/05/14 00:38:06;;;;;;;8.73;5.88;;;;;;;;;;4992438;28;20438;-76
2023/05/14 00:40:31;;;;;;;8.85;5.80;;;;;;;;;;4973604;28;20060;-76
2023/05/14 00:42:57;;;;;;;9.40;6.50;;;;;;;;;;4978838;28;20030;-77
2023/05/14 00:45:22;;;;;;;9.18;6.00;;;;;;;;;;4958292;28;20501;-76
2023/05/14 00:47:48;;;;;;;8.93;6.25;;;;;;;;;;4976144;28;20465;-76
2023/05/14 00:50:15;;;;;;;8.55;5.80;;;;;;;;;;4974099;28;20049;-79
2023/05/14 00:52:40;;;;;;;9.63;6.57;;;;;;;;;;4980869;28;20038;-76
2023/05/14 00:55:07;;;;;;;8.88;6.07;;;;;;;;;;4977773;28;20030;-76
2023/05/14 00:57:33;;;;;;;9.93;6.32;;;;;;;;;;4982474;28;20035;-76
2023/05/14 00:59:59;;;;;;;10.27;6.10;;;;;;;;;;4979006;28;20033;-76
2023/05/14 01:02:25;;;;;;;9.50;6.32;;;;;;;;;;4978714;28;20045;-76
2023/05/14 01:04:50;;;;;;;10.88;6.07;;;;;;;;;;4994838;28;20039;-76
2023/05/14 01:07:22;;;;;;;9.55;6.40;;;;;;;;;;4977863;28;20048;-76
2023/05/14 01:09:54;;;;;;;11.68;6.03;;;;;;;;;;4997389;28;20096;-76
2023/05/14 01:12:24;;;;;;;9.02;5.88;;;;;;;;;;4983872;28;20034;-76
2023/05/14 01:14:57;;;;;;;10.82;6.32;;;;;;;;;;4980731;28;20038;-76
2023/05/14 01:17:26;;;;;;;8.23;5.68;;;;;;;;;;4995426;28;20475;-77
2023/05/14 01:19:51;;;;;;;9.75;5.63;;;;;;;;;;4977387;28;20124;-76
2023/05/14 01:22:17;;;;;;;10.35;5.68;;;;;;;;;;4994371;28;20038;-76
2023/05/14 01:24:42;;;;;;;8.15;5.78;;;;;;;;;;4993948;28;20039;-77
2023/05/14 01:27:19;;;;;;;8.98;5.80;;;;;;;;;;4997136;28;20041;-76
2023/05/14 01:30:00;;;;;;;8.10;5.22;;;;;;;;;;4964292;28;20037;-76
2023/05/14 01:32:27;;;;;;;8.73;5.85;;;;;;;;;;4977226;28;20566;-76
2023/05/14 01:34:54;;;;;;;9.23;5.28;;;;;;;;;;4996703;28;20399;-76
2023/05/14 01:37:20;;;;;;;7.20;5.32;;;;;;;;;;4977973;28;20050;-76
2023/05/14 01:39:46;;;;;;;8.63;5.32;;;;;;;;;;4975919;28;20034;-76
2023/05/14 01:42:12;;;;;;;10.02;5.63;;;;;;;;;;4979147;28;20038;-75
2023/05/14 01:44:37;;;;;;;7.47;5.28;;;;;;;;;;4992533;28;20118;-75
2023/05/14 01:47:02;;;;;;;6.88;4.85;;;;;;;;;;4994227;28;20493;-75
2023/05/14 01:49:28;;;;;;;8.68;5.50;;;;;;;;;;4978566;28;20042;-76
2023/05/14 01:51:53;;;;;;;8.15;5.22;;;;;;;;;;4993680;28;20077;-75
2023/05/14 01:54:18;;;;;;;8.60;5.30;;;;;;;;;;4994514;28;20125;-75
2023/05/14 01:56:44;;;;;;;7.05;4.88;;;;;;;;;;4977688;28;20041;-75
2023/05/14 01:59:09;;;;;;;8.07;5.00;;;;;;;;;;4980317;28;20847;-75
2023/05/14 02:01:35;;;;;;;7.15;4.72;;;;;;;;;;4978502;28;20095;-75
2023/05/14 02:04:00;;;;;;;7.95;5.40;;;;;;;;;;4977224;28;20042;-75
2023/05/14 02:06:25;;;;;;;7.78;5.25;;;;;;;;;;4993637;28;20040;-75
2023/05/14 02:08:51;;;;;;;8.48;5.10;;;;;;;;;;4994562;28;20041;-75
2023/05/14 02:11:32;;;;;;;8.40;4.90;;;;;;;;;;4994801;28;20446;-75
2023/05/14 02:13:57;;;;;;;8.43;5.18;;;;;;;;;;4996640;28;20030;-75
2023/05/14 02:16:22;;;;;;;8.15;4.85;;;;;;;;;;4976605;28;20401;-76
2023/05/14 02:18:48;;;;;;;7.07;4.47;;;;;;;;;;4996089;28;20034;-75
2023/05/14 02:21:13;;;;;;;7.93;4.80;;;;;;;;;;4977012;28;20046;-75
2023/05/14 02:23:38;;;;;;;7.22;4.63;;;;;;;;;;4974073;28;20085;-76
2023/05/14 02:26:04;;;;;;;7.05;4.60;;;;;;;;;;4974972;28;20045;-75
2023/05/14 02:28:29;;;;;;;8.57;4.60;;;;;;;;;;4972813;28;20502;-75
2023/05/14 02:30:59;;;;;;;7.25;4.85;;;;;;;;;;4974258;28;20035;-75
2023/05/14 02:33:24;;;;;;;8.30;4.70;;;;;;;;;;4973840;28;20034;-76
2023/05/14 02:35:50;;;;;;;6.95;4.60;;;;;;;;;;4975124;28;20034;-75
2023/05/14 02:38:15;;;;;;;9.27;4.72;;;;;;;;;;4958031;28;20833;-75
2023/05/14 02:40:40;;;;;;;7.22;4.53;;;;;;;;;;4971912;28;20087;-75
2023/05/14 02:43:06;;;;;;;5.95;4.30;;;;;;;;;;4973060;28;20031;-75
2023/05/14 02:45:31;;;;;;;7.63;4.60;;;;;;;;;;4977618;28;20093;-75
2023/05/14 02:47:57;;;;;;;8.63;4.78;;;;;;;;;;4958243;28;20038;-75
2023/05/14 02:50:22;;;;;;;7.95;4.55;;;;;;;;;;4974253;28;20045;-77
2023/05/14 02:52:47;;;;;;;6.97;4.22;;;;;;;;;;4973933;28;20505;-76
2023/05/14 02:55:13;;;;;;;7.60;4.60;;;;;;;;;;4975430;28;20038;-75
2023/05/14 02:57:38;;;;;;;6.70;4.30;;;;;;;;;;4976803;28;20038;-75
2023/05/14 03:00:04;;;;;;;6.75;4.28;;;;;;;;;;4973831;28;20126;-75
2023/05/14 03:02:30;;;;;;;6.93;4.57;;;;;;;;;;4974603;28;20043;-76
2023/05/14 03:04:55;;;;;;;8.35;4.50;;;;;;;;;;4976162;28;20445;-75
2023/05/14 03:07:20;;;;;;;7.95;4.80;;;;;;;;;;4975597;28;20888;-75
2023/05/14 03:09:46;;;;;;;6.50;3.90;;;;;;;;;;4958668;28;20042;-74
2023/05/14 03:12:13;;;;;;;7.50;4.35;;;;;;;;;;4991342;28;20049;-75
2023/05/14 03:14:38;;;;;;;6.87;4.23;;;;;;;;;;4972650;28;20496;-76
2023/05/14 03:17:04;;;;;;;9.07;4.25;;;;;;;;;;4972736;28;20063;-75
2023/05/14 03:19:29;;;;;;;6.32;4.28;;;;;;;;;;4978116;28;20159;-76
2023/05/14 03:21:54;;;;;;;7.45;4.40;;;;;;;;;;4988447;28;20026;-75
2023/05/14 03:24:20;;;;;;;6.22;4.13;;;;;;;;;;4963478;28;20051;-75
2023/05/14 03:26:45;;;;;;;7.35;4.57;;;;;;;;;;4964544;28;20066;-75
2023/05/14 03:29:11;;;;;;;8.18;4.43;;;;;;;;;;4965108;28;20035;-75
2023/05/14 03:31:36;;;;;;;8.13;4.10;;;;;;;;;;4964426;28;20118;-75
2023/05/14 03:34:01;;;;;;;6.38;4.30;;;;;;;;;;4964505;28;20042;-75
2023/05/14 03:36:27;;;;;;;7.40;4.03;;;;;;;;;;4962986;28;20045;-75
2023/05/14 03:38:52;;;;;;;9.40;4.10;;;;;;;;;;4979671;28;20031;-77
2023/05/14 03:41:18;;;;;;;6.40;4.30;;;;;;;;;;4961499;28;20139;-75
2023/05/14 03:43:44;;;;;;;7.40;3.92;;;;;;;;;;4966114;28;20441;-75
2023/05/14 03:46:09;;;;;;;6.38;3.95;;;;;;;;;;4964165;28;20039;-75
2023/05/14 03:48:35;;;;;;;5.88;4.07;;;;;;;;;;4946009;28;20045;-75
2023/05/14 03:51:00;;;;;;;7.43;4.03;;;;;;;;;;4964641;28;20086;-75
2023/05/14 03:53:25;;;;;;;8.00;4.00;;;;;;;;;;4964753;28;20043;-77
2023/05/14 03:55:51;;;;;;;5.97;3.80;;;;;;;;;;4962491;28;20475;-77
2023/05/14 03:58:16;;;;;;;9.00;3.85;;;;;;;;;;4964711;28;20121;-77
2023/05/14 04:00:42;;;;;;;7.57;4.15;;;;;;;;;;4979841;28;20113;-77
2023/05/14 04:03:07;;;;;;;6.30;4.40;;;;;;;;;;4962581;28;20085;-77
2023/05/14 04:05:34;;;;;;;6.88;4.00;;;;;;;;;;4962086;28;20034;-76
2023/05/14 04:08:00;;;;;;;8.18;4.28;;;;;;;;;;4962740;28;20034;-76
2023/05/14 04:10:25;;;;;;;6.72;4.28;;;;;;;;;;4962950;28;20049;-76
2023/05/14 04:12:51;;;;;;;10.48;4.60;;;;;;;;;;4965311;28;20046;-76
2023/05/14 04:15:16;;;;;;;7.15;3.97;;;;;;;;;;4964119;28;20122;-77
2023/05/14 04:17:42;;;;;;;7.13;4.43;;;;;;;;;;4946958;28;20699;-76
2023/05/14 04:20:07;;;;;;;6.75;4.53;;;;;;;;;;4947336;28;20105;-76
2023/05/14 04:22:33;;;;;;;6.13;4.32;;;;;;;;;;4960675;28;20409;-77
2023/05/14 04:24:58;;;;;;;7.55;4.70;;;;;;;;;;4980872;28;20544;-76
2023/05/14 04:27:23;;;;;;;8.43;4.30;;;;;;;;;;4990009;28;20390;-76
2023/05/14 04:29:49;;;;;;;7.40;4.70;;;;;;;;;;4977353;28;20389;-77
2023/05/14 04:32:15;;;;;;;9.05;4.78;;;;;;;;;;4977519;28;20042;-76
2023/05/14 04:34:40;;;;;;;7.95;4.90;;;;;;;;;;4975367;28;20485;-76
2023/05/14 04:37:06;;;;;;;6.68;4.43;;;;;;;;;;4991387;28;20030;-76
2023/05/14 04:39:31;;;;;;;7.40;4.55;;;;;;;;;;4974874;28;20070;-76
2023/05/14 04:41:56;;;;;;;7.38;4.90;;;;;;;;;;4967603;28;20030;-77
2023/05/14 04:44:22;;;;;;;7.22;4.40;;;;;;;;;;4977733;28;20035;-76
2023/05/14 04:46:47;;;;;;;8.02;5.03;;;;;;;;;;4975157;28;20129;-76
2023/05/14 04:49:12;;;;;;;7.93;4.55;;;;;;;;;;4974266;28;20117;-76
2023/05/14 04:51:38;;;;;;;6.00;4.20;;;;;;;;;;4991324;28;20811;-76
2023/05/14 04:54:03;;;;;;;7.95;4.50;;;;;;;;;;4992353;28;20046;-77
2023/05/14 04:56:28;;;;;;;7.28;4.15;;;;;;;;;;4991177;28;20120;-75
2023/05/14 04:58:54;;;;;;;9.52;4.55;;;;;;;;;;4992453;28;20474;-77
2023/05/14 05:01:21;;;;;;;7.80;3.88;;;;;;;;;;4975323;28;20418;-77
2023/05/14 05:03:46;;;;;;;7.28;4.40;;;;;;;;;;4977672;28;20050;-76
2023/05/14 05:06:11;;;;;;;6.85;4.20;;;;;;;;;;4975408;28;20062;-76
2023/05/14 05:08:37;;;;;;;5.68;3.88;;;;;;;;;;4974701;28;20034;-76
2023/05/14 05:11:03;;;;;;;7.85;4.47;;;;;;;;;;4990864;28;20101;-76
2023/05/14 05:13:28;;;;;;;8.55;4.40;;;;;;;;;;4975333;28;20038;-77
2023/05/14 05:15:53;;;;;;;7.50;4.72;;;;;;;;;;4974498;28;20085;-77
2023/05/14 05:18:19;;;;;;;7.45;4.00;;;;;;;;;;4992824;28;20400;-76
2023/05/14 05:20:44;;;;;;;6.97;4.28;;;;;;;;;;4973231;28;20042;-75
2023/05/14 05:23:10;;;;;;;7.10;4.18;;;;;;;;;;4975490;28;20054;-75
2023/05/14 05:25:35;;;;;;;6.90;4.05;;;;;;;;;;4991912;28;20041;-75
2023/05/14 05:28:00;;;;;;;8.32;3.92;;;;;;;;;;4975319;28;20030;-75
2023/05/14 05:30:26;;;;;;;6.82;4.28;;;;;;;;;;4991251;28;20049;-75
2023/05/14 05:32:51;;;;;;;8.48;4.38;;;;;;;;;;4991915;28;20034;-77
2023/05/14 05:35:17;;;;;;;6.90;4.35;;;;;;;;;;4966257;28;20041;-75
2023/05/14 05:37:44;;;;;;;7.00;4.50;;;;;;;;;;4975201;28;21161;-75
2023/05/14 05:40:09;;;;;;;5.93;3.65;;;;;;;;;;4994962;28;20060;-76
2023/05/14 05:42:35;;;;;;;6.93;3.80;;;;;;;;;;4993494;28;20616;-76
2023/05/14 05:45:00;;;;;;;7.35;4.18;;;;;;;;;;4995990;28;20437;-76
2023/05/14 05:47:26;;;;;;;6.78;4.05;;;;;;;;;;4976517;28;20042;-76
2023/05/14 05:49:52;;;;;;;6.80;4.07;;;;;;;;;;4980042;28;20038;-75
2023/05/14 05:52:18;;;;;;;6.73;4.40;;;;;;;;;;4995338;28;20031;-76
2023/05/14 05:54:43;;;;;;;7.32;4.72;;;;;;;;;;4969302;28;20029;-75
2023/05/14 05:57:09;;;;;;;9.48;4.70;;;;;;;;;;4978745;28;20401;-75
2023/05/14 05:59:35;;;;;;;6.90;4.20;;;;;;;;;;4996432;28;20462;-75
2023/05/14 06:02:00;;;;;;;6.70;4.25;;;;;;;;;;4975499;28;20040;-75
2023/05/14 06:04:25;;;;;;;7.25;4.32;;;;;;;;;;4996217;28;20145;-75
2023/05/14 06:06:51;;;;;;;9.27;4.80;;;;;;;;;;4998311;28;20053;-75
2023/05/14 06:09:16;;;;;;;6.90;4.40;;;;;;;;;;4976514;28;20164;-75
2023/05/14 06:11:42;;;;;;;7.38;4.25;;;;;;;;;;4994018;28;20046;-75
2023/05/14 06:14:07;;;;;;;7.75;3.95;;;;;;;;;;4996705;28;20040;-75
2023/05/14 06:16:32;;;;;;;8.95;3.97;;;;;;;;;;4993754;28;20068;-75
2023/05/14 06:18:58;;;;;;;6.95;4.30;;;;;;;;;;4961357;28;20053;-75
2023/05/14 06:21:23;;;;;;;7.40;4.30;;;;;;;;;;4980848;28;20165;-76
2023/05/14 06:23:48;;;;;;;6.32;3.90;;;;;;;;;;4977539;28;20054;-75
2023/05/14 06:26:14;;;;;;;6.13;3.90;;;;;;;;;;4993066;28;20084;-75
2023/05/14 06:28:39;;;;;;;5.80;3.80;;;;;;;;;;4994064;28;20080;-75
2023/05/14 06:31:05;;;;;;;5.93;3.53;;;;;;;;;;4997469;28;20049;-76
2023/05/14 06:33:30;;;;;;;6.55;4.15;;;;;;;;;;4976100;28;20038;-76
2023/05/14 06:35:59;;;;;;;6.40;4.30;;;;;;;;;;4974866;28;20118;-76
2023/05/14 06:38:25;;;;;;;8.93;4.78;;;;;;;;;;4966935;28;20045;-75
2023/05/14 06:40:52;;;;;;;8.40;3.92;;;;;;;;;;4994390;28;20064;-77
2023/05/14 06:43:17;;;;;;;7.18;4.10;;;;;;;;;;4977685;28;20045;-76
2023/05/14 06:45:43;;;;;;;6.53;3.72;;;;;;;;;;4957738;28;20038;-77
2023/05/14 06:48:08;;;;;;;8.73;3.75;;;;;;;;;;4992720;28;20042;-77
2023/05/14 06:50:34;;;;;;;5.20;3.42;;;;;;;;;;4989857;28;20410;-77
2023/05/14 06:53:00;;;;;;;5.30;3.33;;;;;;;;;;4976913;28;20037;-77
2023/05/14 06:55:25;;;;;;;6.03;3.30;;;;;;;;;;4960316;28;20046;-76
2023/05/14 06:57:50;;;;;;;6.30;3.40;;;;;;;;;;4991358;28;20030;-76
2023/05/14 07:00:16;;;;;;;5.72;3.28;;;;;;;;;;4994927;28;20030;-76
2023/05/14 07:02:42;;;;;;;8.00;3.70;;;;;;;;;;4995776;28;20034;-76
2023/05/14 07:05:07;;;;;;;5.97;3.38;;;;;;;;;;4966482;28;20034;-77
2023/05/14 07:07:33;;;;;;;5.72;3.60;;;;;;;;;;4978270;28;20802;-76
2023/05/14 07:09:58;;;;;;;6.25;3.30;;;;;;;;;;4994758;28;20045;-77
2023/05/14 07:12:24;;;;;;;6.45;3.28;;;;;;;;;;4959729;28;20388;-77
2023/05/14 07:14:50;;;;;;;5.93;3.53;;;;;;;;;;4977400;28;20033;-76
2023/05/14 07:17:15;;;;;;;7.00;3.25;;;;;;;;;;4992041;28;20061;-76
2023/05/14 07:19:40;;;;;;;5.15;2.83;;;;;;;;;;4975404;28;20881;-76
2023/05/14 07:22:06;;;;;;;4.88;3.17;;;;;;;;;;4974546;28;20035;-76
2023/05/14 07:24:31;;;;;;;7.32;3.03;;;;;;;;;;4975464;28;20413;-77
2023/05/14 07:26:56;;;;;;;4.65;2.83;;;;;;;;;;4960350;28;20097;-77
2023/05/14 07:29:24;;;;;;;5.18;2.80;;;;;;;;;;4992997;28;20037;-76
2023/05/14 07:31:50;;;;;;;4.97;2.85;;;;;;;;;;4992505;28;20129;-76
2023/05/14 07:34:15;;;;;;;7.25;2.95;;;;;;;;;;4992721;28;20044;-75
2023/05/14 07:36:41;;;;;;;6.30;2.85;;;;;;;;;;4993187;28;20034;-75
2023/05/14 07:39:06;;;;;;;7.13;3.40;;;;;;;;;;4975567;28;20069;-75
2023/05/14 07:41:32;;;;;;;4.03;2.40;;;;;;;;;;4992474;28;20038;-76
2023/05/14 07:43:57;;;;;;;4.75;2.65;;;;;;;;;;4992917;28;20034;-75
2023/05/14 07:46:24;;;;;;;4.97;2.60;;;;;;;;;;4993307;28;20042;-77
2023/05/14 07:48:49;;;;;;;4.57;2.15;;;;;;;;;;4976147;28;20807;-77
2023/05/14 07:51:16;;;;;;;4.25;2.20;;;;;;;;;;4981057;28;20149;-78
2023/05/14 07:53:41;;;;;;;4.22;2.00;;;;;;;;;;4994047;28;20153;-77
2023/05/14 07:56:07;;;;;;;5.00;2.30;;;;;;;;;;4990837;28;20022;-77
2023/05/14 07:58:33;;;;;;;4.22;2.20;;;;;;;;;;4992544;28;20064;-77
2023/05/14 08:01:00;;;;;;;4.10;2.30;;;;;;;;;;4989983;28;20042;-77
2023/05/14 08:03:25;;;;;;;5.32;2.20;;;;;;;;;;4975714;28;20052;-78
2023/05/14 08:05:51;;;;;;;4.78;2.47;;;;;;;;;;4992404;28;20029;-78
2023/05/14 08:08:16;;;;;;;4.40;2.17;;;;;;;;;;4975604;28;20042;-77
2023/05/14 08:10:42;;;;;;;4.30;2.22;;;;;;;;;;4975512;28;21358;-80
2023/05/14 08:13:07;;;;;;;3.88;2.00;;;;;;;;;;4993218;28;20034;-78
2023/05/14 08:15:33;;;;;;;4.57;2.05;;;;;;;;;;4993232;28;20034;-80
2023/05/14 08:18:02;;;;;;;3.58;2.00;;;;;;;;;;4973061;28;20072;-78
2023/05/14 08:20:29;;;;;;;3.85;2.22;;;;;;;;;;4969474;28;20089;-79
2023/05/14 08:22:56;;;;;;;6.55;2.45;;;;;;;;;;4990821;28;20524;-77
2023/05/14 08:25:21;;;;;;;4.13;2.30;;;;;;;;;;4976480;28;20038;-78
2023/05/14 08:27:46;;;;;;;5.15;2.17;;;;;;;;;;4992540;28;20441;-81
2023/05/14 08:30:12;;;;;;;3.92;2.22;;;;;;;;;;4975514;28;20283;-80
2023/05/14 08:32:38;;;;;;;4.18;2.05;;;;;;;;;;4979623;28;20026;-81
2023/05/14 08:35:03;;;;;;;4.80;2.10;;;;;;;;;;4958302;28;20121;-80
2023/05/14 08:37:29;;;;;;;4.20;2.10;;;;;;;;;;4992599;28;20026;-79
2023/05/14 08:39:55;;;;;;;3.63;2.10;;;;;;;;;;4993066;28;20370;-78
2023/05/14 08:42:23;;;;;;;4.45;2.30;;;;;;;;;;4976440;28;20460;-78
2023/05/14 08:44:52;;;;;;;5.28;2.35;;;;;;;;;;4992685;28;20829;-76
2023/05/14 08:47:20;;;;;;;3.30;1.98;;;;;;;;;;4991196;28;20523;-77
2023/05/14 08:49:48;;;;;;;4.03;2.00;;;;;;;;;;4973745;28;20426;-78
2023/05/14 08:52:15;;;;;;;6.70;2.40;;;;;;;;;;4990607;28;20142;-79
2023/05/14 08:54:40;;;;;;;5.38;1.90;;;;;;;;;;4994328;28;20025;-78
2023/05/14 08:57:08;;;;;;;4.38;2.30;;;;;;;;;;4991141;28;20042;-78
2023/05/14 08:59:33;;;;;;;5.25;2.30;;;;;;;;;;4974975;28;20038;-80
2023/05/14 09:02:00;;;;;;;4.20;2.03;;;;;;;;;;4971850;28;20081;-78
2023/05/14 09:04:26;;;;;;;7.50;2.17;;;;;;;;;;4992559;28;20053;-80
2023/05/14 09:06:53;;;;;;;4.25;1.90;;;;;;;;;;4989982;28;20524;-79
2023/05/14 09:09:21;;;;;;;5.20;2.03;;;;;;;;;;4966769;28;20122;-81
2023/05/14 09:11:48;;;;;;;3.70;1.98;;;;;;;;;;4975795;28;20438;-79
2023/05/14 09:14:13;;;;;;;5.55;1.88;;;;;;;;;;4971644;28;20058;-79
2023/05/14 09:16:41;;;;;;;4.75;2.08;;;;;;;;;;4995957;28;20088;-76
2023/05/14 09:19:07;;;;;;;6.25;1.83;;;;;;;;;;4995938;28;20042;-79
2023/05/14 09:21:33;;;;;;;3.75;2.05;;;;;;;;;;4980076;28;20035;-78
2023/05/14 09:23:58;;;;;;;4.40;1.90;;;;;;;;;;4993019;28;20310;-78
2023/05/14 09:26:27;;;;;;;3.47;1.73;;;;;;;;;;4997025;28;20436;-78
2023/05/14 09:29:00;;;;;;;3.00;1.60;;;;;;;;;;4970203;28;20509;-80
2023/05/14 09:31:26;;;;;;;4.10;1.80;;;;;;;;;;4994986;28;20489;-81
2023/05/14 09:33:52;;;;;;;3.38;1.70;;;;;;;;;;4979120;28;20119;-82
2023/05/14 09:36:18;;;;;;;4.03;2.00;;;;;;;;;;4995096;28;20045;-77
2023/05/14 09:38:44;;;;;;;2.85;1.40;;;;;;;;;;4978604;28;20513;-77
2023/05/14 09:41:09;;;;;;;12.52;2.28;;;;;;;;;;4961757;28;20037;-77
2023/05/14 09:43:35;;;;;;;3.88;1.52;;;;;;;;;;4996679;28;20037;-77
2023/05/14 09:46:00;;;;;;;3.13;1.70;;;;;;;;;;4959498;28;20516;-76
2023/05/14 09:48:26;;;;;;;3.45;1.80;;;;;;;;;;4995935;28;20042;-77
2023/05/14 09:50:51;;;;;;;4.00;1.75;;;;;;;;;;4988782;28;20088;-77
2023/05/14 09:53:17;;;;;;;4.65;1.80;;;;;;;;;;4960541;28;20045;-76
2023/05/14 09:55:43;;;;;;;3.50;1.48;;;;;;;;;;4978510;28;20049;-76
2023/05/14 09:58:08;;;;;;;6.10;2.10;;;;;;;;;;4994451;28;20490;-76
2023/05/14 10:00:34;;;;;;;3.80;1.90;;;;;;;;;;4976928;28;20041;-77
2023/05/14 10:03:05;;;;;;;4.47;1.70;;;;;;;;;;4961271;28;20391;-77
2023/05/14 10:05:35;;;;;;;3.15;1.73;;;;;;;;;;4977090;28;20379;-76
2023/05/14 10:08:04;;;;;;;3.55;2.17;;;;;;;;;;4996907;28;20072;-76
2023/05/14 10:10:32;;;;;;;4.85;1.90;;;;;;;;;;4971119;28;20030;-79
2023/05/14 10:13:03;;;;;;;5.82;2.10;;;;;;;;;;4996420;28;20038;-77
2023/05/14 10:15:47;;;;;;;5.85;2.30;;;;;;;;;;4975080;28;20421;-77
2023/05/14 10:18:17;;;;;;;4.90;2.22;;;;;;;;;;4976991;28;20138;-77
2023/05/14 10:20:43;;;;;;;3.53;2.05;;;;;;;;;;4957857;28;20493;-77
2023/05/14 10:23:08;;;;;;;3.88;2.15;;;;;;;;;;4978748;28;20050;-77
2023/05/14 10:25:35;;;;;;;5.38;2.20;;;;;;;;;;4993992;28;20057;-82
2023/05/14 10:28:01;;;;;;;5.40;2.72;;;;;;;;;;4993734;28;20038;-82
2023/05/14 10:30:26;;;;;;;8.15;2.63;;;;;;;;;;4975921;28;20030;-82
2023/05/14 10:33:08;;;;;;;5.13;2.80;;;;;;;;;;4994057;28;20371;-82
2023/05/14 10:35:56;;;;;;;4.38;2.20;;;;;;;;;;4975769;28;20049;-81
2023/05/14 10:38:27;;;;;;;5.55;2.20;;;;;;;;;;4995541;28;20404;-83
2023/05/14 10:41:00;;;;;;;5.53;2.25;;;;;;;;;;4997063;28;20030;-83
2023/05/14 10:43:29;;;;;;;4.13;2.22;;;;;;;;;;4994512;28;20038;-82
2023/05/14 10:45:56;;;;;;;3.63;2.20;;;;;;;;;;4994274;28;20034;-82
2023/05/14 10:48:21;;;;;;;5.70;1.95;;;;;;;;;;4963961;28;20099;-82
2023/05/14 10:50:48;;;;;;;4.93;2.05;;;;;;;;;;4961937;28;20034;-82
2023/05/14 10:53:14;;;;;;;3.93;2.00;;;;;;;;;;4977920;28;20038;-82
2023/05/14 10:55:41;;;;;;;3.92;2.30;;;;;;;;;;4976340;28;20033;-83
2023/05/14 10:58:08;;;;;;;4.28;2.40;;;;;;;;;;4975790;28;20094;-82
2023/05/14 11:00:34;;;;;;;6.43;2.35;;;;;;;;;;4959556;28;20046;-82
2023/05/14 11:03:03;;;;;;;4.30;1.90;;;;;;;;;;4994100;28;20038;-82
2023/05/14 11:05:28;;;;;;;4.63;2.10;;;;;;;;;;4962085;28;20046;-81
2023/05/14 11:07:55;;;;;;;4.07;2.05;;;;;;;;;;4977791;28;20490;-82
2023/05/14 11:10:22;;;;;;;6.03;2.25;;;;;;;;;;4992023;28;20085;-82
2023/05/14 11:12:49;;;;;;;4.18;2.28;;;;;;;;;;4978482;28;20402;-83
2023/05/14 11:15:16;;;;;;;4.45;2.05;;;;;;;;;;4977053;28;20113;-82
2023/05/14 11:17:43;;;;;;;5.00;2.17;;;;;;;;;;4977355;28;20044;-82
2023/05/14 11:20:10;;;;;;;4.80;2.57;;;;;;;;;;4976112;28;20089;-82
2023/05/14 11:22:36;;;;;;;4.33;2.20;;;;;;;;;;4975701;28;20129;-82
2023/05/14 11:25:02;;;;;;;5.47;2.20;;;;;;;;;;4993391;28;20046;-82
2023/05/14 11:27:28;;;;;;;9.13;2.00;;;;;;;;;;4978503;28;20044;-81
2023/05/14 11:29:54;;;;;;;4.75;2.20;;;;;;;;;;4994082;28;20042;-80
2023/05/14 11:32:20;;;;;;;4.15;2.25;;;;;;;;;;4995351;28;20037;-82
2023/05/14 11:34:46;;;;;;;4.57;2.22;;;;;;;;;;4976715;28;20036;-82
2023/05/14 11:37:14;;;;;;;6.68;2.20;;;;;;;;;;4960351;28;20406;-82
2023/05/14 11:39:48;;;;;;;4.03;2.50;;;;;;;;;;4961515;28;20490;-82
2023/05/14 11:42:15;;;;;;;4.78;2.08;;;;;;;;;;4992020;28;20556;-82
2023/05/14 11:44:43;;;;;;;;;;;;;;;;;;4977917;28;20487;-81
2023/05/14 11:47:09;;;;;;;4.78;2.00;;;;;;;;;;4994689;28;19960;-82
2023/05/14 11:49:36;;;;;;;6.55;2.75;;;;;;;;;;4975416;28;20042;-80
2023/05/14 11:52:05;;;;;;;6.20;2.35;;;;;;;;;;4994470;28;20512;-79
2023/05/14 11:54:32;;;;;;;5.63;2.50;;;;;;;;;;4992288;28;20057;-80
2023/05/14 11:56:59;;;;;;;4.95;2.20;;;;;;;;;;4978580;28;20080;-80
2023/05/14 11:59:30;;;;;;;3.63;2.00;;;;;;;;;;4993163;28;20512;-80
2023/05/14 12:01:56;;;;;;;3.55;2.15;;;;;;;;;;4976712;28;20045;-79
2023/05/14 12:04:21;;;;;;;3.85;2.13;;;;;;;;;;4975353;28;20031;-79
2023/05/14 12:06:48;;;;;;;7.60;2.55;;;;;;;;;;4973445;28;20125;-80
2023/05/14 12:09:21;;;;;;;5.00;2.10;;;;;;;;;;4975642;28;20535;-81
2023/05/14 12:11:47;;;;;;;4.45;2.50;;;;;;;;;;4976961;28;20121;-82
2023/05/14 12:14:19;;;;;;;4.70;2.25;;;;;;;;;;4994346;28;20042;-81
2023/05/14 12:16:45;;;;;;;7.50;2.35;;;;;;;;;;4976385;28;20038;-81
2023/05/14 12:19:13;;;;;;;4.15;2.17;;;;;;;;;;4993555;28;20728;-81
2023/05/14 12:21:39;;;;;;;5.97;2.38;;;;;;;;;;4960335;28;20107;-81
2023/05/14 12:24:09;;;;;;;4.75;2.13;;;;;;;;;;4976124;28;20093;-82
2023/05/14 12:26:35;;;;;;;4.72;2.35;;;;;;;;;;4976497;28;20494;-81
2023/05/14 12:29:02;;;;;;;3.60;2.20;;;;;;;;;;4995138;28;20069;-82
2023/05/14 12:31:30;;;;;;;4.18;2.10;;;;;;;;;;4973693;28;20469;-82
2023/05/14 12:33:56;;;;;;;6.28;2.30;;;;;;;;;;4961193;28;20511;-81
2023/05/14 12:36:22;;;;;;;4.97;2.30;;;;;;;;;;4995491;28;20099;-82
2023/05/14 12:38:49;;;;;;;4.97;2.13;;;;;;;;;;4960605;28;20037;-83
2023/05/14 12:41:14;;;;;;;4.63;2.25;;;;;;;;;;4991741;28;20494;-82
2023/05/14 12:43:42;;;;;;;3.35;1.95;;;;;;;;;;4965846;28;20072;-81
2023/05/14 12:46:07;;;;;;;;;;;;;;;;;;4972870;28;20552;-82
2023/05/14 12:48:32;;;;;;;3.35;1.90;;;;;;;;;;4996671;28;19913;-82
2023/05/14 12:50:58;;;;;;;4.07;2.15;;;;;;;;;;4980753;28;20045;-82
2023/05/14 12:53:23;;;;;;;7.40;2.30;;;;;;;;;;4997310;28;20497;-80
2023/05/14 12:55:49;;;;;;;3.50;2.15;;;;;;;;;;4971295;28;20053;-81
2023/05/14 12:58:14;;;;;;;4.55;2.00;;;;;;;;;;4997172;28;20552;-82
2023/05/14 13:00:40;;;;;;;5.22;2.20;;;;;;;;;;4996622;28;20481;-81
2023/05/14 13:03:06;;;;;;;5.05;2.10;;;;;;;;;;4961735;28;20084;-82
2023/05/14 13:05:32;;;;;;;5.70;2.20;;;;;;;;;;4979538;28;20091;-81
2023/05/14 13:07:58;;;;;;;4.80;2.20;;;;;;;;;;4995682;28;20623;-81
2023/05/14 13:10:23;;;;;;;4.22;2.20;;;;;;;;;;4978192;28;20099;-80
2023/05/14 13:12:51;;;;;;;4.88;2.20;;;;;;;;;;4994452;28;20448;-81
2023/05/14 13:15:16;;;;;;;;;;;;;;;;;;4997518;28;20026;-81
2023/05/14 13:17:42;;;;;;;4.18;2.03;;;;;;;;;;4979698;28;19918;-81
2023/05/14 13:20:08;;;;;;;6.05;2.08;;;;;;;;;;4980120;28;20113;-82
2023/05/14 13:22:33;;;;;;;4.03;2.35;;;;;;;;;;4974827;28;20030;-82
2023/05/14 13:24:58;;;;;;;9.52;2.35;;;;;;;;;;4996852;28;20125;-81
2023/05/14 13:27:24;;;;;;;3.67;1.98;;;;;;;;;;4995836;28;20042;-81
2023/05/14 13:29:50;;;;;;;4.00;2.20;;;;;;;;;;4996798;28;20037;-82
2023/05/14 13:32:15;;;;;;;4.05;2.33;;;;;;;;;;4977368;28;20450;-82
2023/05/14 13:34:41;;;;;;;4.43;2.20;;;;;;;;;;4994774;28;20059;-81
2023/05/14 13:37:06;;;;;;;5.38;2.40;;;;;;;;;;4978407;28;20040;-83
2023/05/14 13:39:32;;;;;;;3.55;1.90;;;;;;;;;;4977491;28;20042;-82
2023/05/14 13:41:57;;;;;;;5.35;1.90;;;;;;;;;;4997275;28;20173;-83
2023/05/14 13:44:23;;;;;;;4.90;2.28;;;;;;;;;;4999021;28;20034;-83
2023/05/14 13:46:48;;;;;;;6.63;2.05;;;;;;;;;;4996592;28;20038;-83
2023/05/14 13:49:14;;;;;;;3.83;2.00;;;;;;;;;;4995999;28;20054;-83
2023/05/14 13:51:39;;;;;;;4.13;2.17;;;;;;;;;;4995253;28;20034;-82
2023/05/14 13:54:04;;;;;;;4.82;2.17;;;;;;;;;;4994371;28;20438;-82
2023/05/14 13:56:30;;;;;;;4.03;2.00;;;;;;;;;;4978535;28;20392;-82
2023/05/14 13:58:55;;;;;;;4.10;2.20;;;;;;;;;;4994810;28;20057;-81
2023/05/14 14:01:22;;;;;;;3.70;1.92;;;;;;;;;;4994153;28;20363;-82
2023/05/14 14:03:47;;;;;;;5.25;2.15;;;;;;;;;;4995526;28;20037;-82
2023/05/14 14:06:12;;;;;;;4.53;2.42;;;;;;;;;;4996230;28;20039;-81
2023/05/14 14:08:38;;;;;;;3.95;2.20;;;;;;;;;;4979287;28;20037;-82
2023/05/14 14:11:03;;;;;;;5.05;2.25;;;;;;;;;;4994776;28;20070;-82
2023/05/14 14:13:29;;;;;;;4.85;2.20;;;;;;;;;;4962704;28;20056;-81
2023/05/14 14:15:54;;;;;;;4.05;2.00;;;;;;;;;;4979183;28;20057;-81
2023/05/14 14:18:20;;;;;;;4.38;2.33;;;;;;;;;;4978369;28;20030;-82
2023/05/14 14:20:45;;;;;;;4.38;2.08;;;;;;;;;;4978868;28;20034;-82
2023/05/14 14:23:10;;;;;;;4.20;2.50;;;;;;;;;;4977846;28;20069;-82
2023/05/14 14:25:36;;;;;;;6.40;2.47;;;;;;;;;;4994420;28;20354;-83
2023/05/14 14:28:01;;;;;;;4.82;2.20;;;;;;;;;;4995124;28;20053;-82
2023/05/14 14:30:27;;;;;;;4.20;2.20;;;;;;;;;;4978888;28;20037;-81
2023/05/14 14:32:52;;;;;;;4.18;2.20;;;;;;;;;;4997908;28;20044;-82
2023/05/14 14:35:18;;;;;;;4.80;2.10;;;;;;;;;;4994840;28;20034;-81
2023/05/14 14:37:47;;;;;;;4.65;2.00;;;;;;;;;;4995978;28;20499;-82